Arock, OR

2:57 PM MDT on May 27, 2015 (GMT -0600)
Rome State | | Change Station
CLOSE
Current Station
Airport
Location: Rome,
Elevation: 4049 ft
Nearby Weather Stations

Elev 4049 ft 42.59 °N, 117.86 °W | Updated 5 minutes ago

Overcast
Overcast
73 °F
Feels Like 73 °F
N
12
Wind Variable Wind from North
Gusts mph

Today
High -- | Low -- °F
--% Chance of Precip.
Yesterday
High -- | Low -- °F
Precip. -- in
6:16 AM 9:17 PM
Waxing Gibbous, 70% visible
Pressure 29.91 in
Visibility -9999.0 miles
Clouds
Dew Point 42 °F
Humidity 33%
Rainfall 0.00 in
Snow Depth Not available.
UV Not available.
Pollen 6.90 out of 12
Air Quality Not available.
Flu Activity No Activity
METAR KREO 272052Z AUTO 01010KT 23/06 A2998 RMK AO1 SLP129 T02280056 58012

More Conditions Fewer Conditions

Pressure 29.91 in
Visibility -9999.0 miles
Clouds
Dew Point 42 °F
Humidity 33%
Rainfall 0.00 in
Snow Depth Not available.
UV Not available.
Pollen 6.90 out of 12
Air Quality Not available.
Flu Activity No Activity
METAR KREO 272052Z AUTO 01010KT 23/06 A2998 RMK AO1 SLP129 T02280056 58012

More Conditions Fewer Conditions

10-Day Weather Forecast

Almanac

Astronomy

May. 27, 2015 Rise Set
Actual Time
Civil Twilight
Nautical Twilight
Astronomical Twilight
Moon
Length of Visible Light
Length of Day
Tomorrow will be .
, % of the Moon is Illuminated

Today's Extremes

State Highs State Lows

Community

WunderPhotos

Upload Photos

1,824,782 photos uploaded!

WunderBlogs® & News

Nearby

Air Quality

  Air Quality AQ Index Pollutant
Not available.

Snow Depth

Station Depth Elevation

Earthquake Activity

City Distance Mag. Time & Date
Minimum magnitude displayed is 2.5.

Coastal Water Temperatures

Place Temperature

Stations

Nearby Weather Stations

Station Location Temp. Windchill Dew Point Humidity Wind Precip. Elev Updated Type